Assumption, Nebraska
Current Conditions -  °F | °C
As of 8:53 AM on Friday 19 Dec 2014 (Local Time) from KHSI Reporting Station
Haze Haze  
Wind Chill: 22°   Ceiling: 700
Heat Index: 30°   Visibility: 6mi
Dew Point: 27°   Wind: 8mph
Humidity: 88%   Direction: 240°WSW
Pressure: 30.15"   Gusts: NA
Location:  40.5679°N, 98.5535°W
Report Text: KHSI 191453Z AUTO 24007KT 6SM BR OVC007 M01/M03 A3015 RMK AO2 SLP230 T10111028 53005
Loading
Personal Weather Stations






























Interactive Weather Map New forecast layout! Learn more

10-Day Weather Forecast

Advertisements
Track Severe Weather on mobile